Port Jefferson, New York
Current Conditions -  °F | °C
As of 9:56 AM on Saturday 22 Nov 2014 (Local Time) from KISP Reporting Station
Scattered Clouds Scattered Clouds  
Wind Chill: 28°   Ceiling: Unl
Heat Index: 36°   Visibility: 10mi
Dew Point: 14°   Wind: 13mph
Humidity: 41%   Direction: 220°SW
Pressure: 30.43"   Gusts: NA
Location:  40.95°N, 73.07°W
Report Text: KISP 221456Z 22011KT 10SM SCT250 02/M10 A3043 RMK AO2 SLP306 T00221100 58012
Loading
Personal Weather Stations






























Interactive Weather Map New forecast layout! Learn more

10-Day Weather Forecast

Advertisements
Track Severe Weather on mobile